createdAt,value
2023-05-02T00:01:52.090Z,7.97
2023-05-02T00:03:58.134Z,5.82
2023-05-02T00:06:00.518Z,5.55
2023-05-02T00:08:02.224Z,6.65
2023-05-02T00:10:04.078Z,6.00
2023-05-02T00:12:05.819Z,5.80
2023-05-02T00:14:08.097Z,7.18
2023-05-02T00:16:09.826Z,5.72
2023-05-02T00:18:12.000Z,5.60
2023-05-02T00:20:21.154Z,6.47
2023-05-02T00:22:22.682Z,5.60
2023-05-02T00:24:24.325Z,5.78
2023-05-02T00:26:26.920Z,6.28
2023-05-02T00:28:28.398Z,6.60
2023-05-02T00:30:29.909Z,5.80
2023-05-02T00:32:31.499Z,6.95
2023-05-02T00:34:33.719Z,5.65
2023-05-02T00:36:35.261Z,8.02
2023-05-02T00:38:36.743Z,6.15
2023-05-02T00:40:49.773Z,6.15
2023-05-02T00:42:51.409Z,6.85
2023-05-02T00:44:53.426Z,5.88
2023-05-02T00:46:56.204Z,6.10
2023-05-02T00:48:57.908Z,5.80
2023-05-02T00:50:59.556Z,5.75
2023-05-02T00:53:02.283Z,6.63
2023-05-02T00:55:06.910Z,7.13
2023-05-02T00:57:08.610Z,6.28
2023-05-02T00:59:11.372Z,6.18
2023-05-02T01:01:31.523Z,5.93
2023-05-02T01:04:04.842Z,5.32
2023-05-02T01:06:38.952Z,5.88
2023-05-02T01:08:50.752Z,5.80
2023-05-02T01:11:17.149Z,5.38
2023-05-02T01:13:26.694Z,5.80
2023-05-02T01:15:28.655Z,5.88
2023-05-02T01:17:32.981Z,6.05
2023-05-02T01:19:41.957Z,6.57
2023-05-02T01:21:44.661Z,5.75
2023-05-02T01:23:57.398Z,5.50
2023-05-02T01:26:22.504Z,6.22
2023-05-02T01:28:59.657Z,6.28
2023-05-02T01:31:04.358Z,6.75
2023-05-02T01:33:08.706Z,5.57
2023-05-02T01:35:11.486Z,6.85
2023-05-02T01:37:14.616Z,6.85
2023-05-02T01:39:20.557Z,5.18
2023-05-02T01:41:25.012Z,4.40
2023-05-02T01:43:27.339Z,4.50
2023-05-02T01:45:29.249Z,4.03
2023-05-02T01:47:35.466Z,3.63
2023-05-02T01:49:38.481Z,4.00
2023-05-02T01:51:46.188Z,4.63
2023-05-02T01:53:50.346Z,4.40
2023-05-02T01:55:54.923Z,4.63
2023-05-02T01:57:57.789Z,5.82
2023-05-02T02:00:01.413Z,5.65
2023-05-02T02:02:08.553Z,7.10
2023-05-02T02:04:13.609Z,5.93
2023-05-02T02:06:16.136Z,4.80
2023-05-02T02:08:17.908Z,5.90
2023-05-02T02:10:19.786Z,5.13
2023-05-02T02:12:28.401Z,5.05
2023-05-02T02:14:35.035Z,4.88
2023-05-02T02:16:39.853Z,5.07
2023-05-02T02:18:44.673Z,4.18
2023-05-02T02:20:48.598Z,4.50
2023-05-02T02:22:51.424Z,4.85
2023-05-02T02:24:54.567Z,6.78
2023-05-02T02:26:56.082Z,4.63
2023-05-02T02:28:57.936Z,4.55
2023-05-02T02:30:59.787Z,4.07
2023-05-02T02:33:04.350Z,4.25
2023-05-02T02:35:07.678Z,4.30
2023-05-02T02:37:16.530Z,5.22
2023-05-02T02:39:28.346Z,4.80
2023-05-02T02:41:40.060Z,4.88
2023-05-02T02:43:56.986Z,4.93
2023-05-02T02:46:15.200Z,5.82
2023-05-02T02:48:29.959Z,6.00
2023-05-02T02:50:38.130Z,5.13
2023-05-02T02:52:58.156Z,6.38
2023-05-02T02:55:08.934Z,4.80
2023-05-02T02:57:16.439Z,4.75
2023-05-02T02:59:36.897Z,5.00
2023-05-02T03:01:41.908Z,4.80
2023-05-02T03:03:44.893Z,5.25
2023-05-02T03:05:47.097Z,4.65
2023-05-02T03:07:50.478Z,4.35
2023-05-02T03:09:55.248Z,5.15
2023-05-02T03:11:58.989Z,4.72
2023-05-02T03:14:04.447Z,4.10
2023-05-02T03:16:34.033Z,4.55
2023-05-02T03:18:36.936Z,4.95
2023-05-02T03:20:38.381Z,4.10
2023-05-02T03:22:39.911Z,3.90
2023-05-02T03:24:42.220Z,4.80
2023-05-02T03:26:47.825Z,3.67
2023-05-02T03:28:51.454Z,3.88
2023-05-02T03:31:00.463Z,4.60
2023-05-02T03:33:04.746Z,4.45
2023-05-02T03:35:07.465Z,4.32
2023-05-02T03:37:13.995Z,3.72
2023-05-02T03:39:15.725Z,4.13
2023-05-02T03:41:18.338Z,4.30
2023-05-02T03:43:20.287Z,4.50
2023-05-02T03:45:21.965Z,4.57
2023-05-02T03:47:25.622Z,4.68
2023-05-02T03:49:27.470Z,5.97
2023-05-02T03:51:29.443Z,5.40
2023-05-02T03:53:32.445Z,5.22
2023-05-02T03:55:39.506Z,5.63
2023-05-02T03:57:41.338Z,5.88
2023-05-02T03:59:45.813Z,5.72
2023-05-02T04:01:56.682Z,5.57
2023-05-02T04:04:07.037Z,6.18
2023-05-02T04:06:15.004Z,5.53
2023-05-02T04:08:19.088Z,5.78
2023-05-02T04:10:21.708Z,5.60
2023-05-02T04:12:28.794Z,6.72
2023-05-02T04:14:31.265Z,5.95
2023-05-02T04:16:33.897Z,6.30
2023-05-02T04:18:35.586Z,6.20
2023-05-02T04:20:44.334Z,6.57
2023-05-02T04:22:50.075Z,6.75
2023-05-02T04:24:51.725Z,6.57
2023-05-02T04:26:55.203Z,7.70
2023-05-02T04:28:56.831Z,6.85
2023-05-02T04:30:59.048Z,7.20
2023-05-02T04:33:02.113Z,8.95
2023-05-02T04:35:07.964Z,10.80
2023-05-02T04:37:09.786Z,18.33
2023-05-02T04:39:14.186Z,19.63
2023-05-02T04:41:22.805Z,16.73
2023-05-02T04:43:30.965Z,17.50
2023-05-02T04:45:36.917Z,13.23
2023-05-02T04:47:41.750Z,12.38
2023-05-02T04:49:43.761Z,11.15
2023-05-02T04:51:45.436Z,8.73
2023-05-02T04:53:48.909Z,7.90
2023-05-02T04:55:53.299Z,7.07
2023-05-02T04:57:54.994Z,6.72
2023-05-02T04:59:56.776Z,7.30
2023-05-02T05:01:58.760Z,6.90
2023-05-02T05:04:00.565Z,6.75
2023-05-02T05:06:02.551Z,6.95
2023-05-02T05:08:04.778Z,7.22
2023-05-02T05:10:11.631Z,8.50
2023-05-02T05:12:19.790Z,9.63
2023-05-02T05:14:21.932Z,9.15
2023-05-02T05:16:28.376Z,8.50
2023-05-02T05:18:30.961Z,8.45
2023-05-02T05:20:33.618Z,8.68
2023-05-02T05:22:41.425Z,9.18
2023-05-02T05:24:51.741Z,10.38
2023-05-02T05:26:54.160Z,9.00
2023-05-02T05:28:56.913Z,9.82
2023-05-02T05:31:06.578Z,7.78
2023-05-02T05:33:10.128Z,8.30
2023-05-02T05:35:19.293Z,8.60
2023-05-02T05:37:21.715Z,9.25
2023-05-02T05:39:23.966Z,8.27
2023-05-02T05:41:27.623Z,9.98
2023-05-02T05:43:38.384Z,9.43
2023-05-02T05:45:40.985Z,11.88
2023-05-02T05:47:42.991Z,13.02
2023-05-02T05:49:44.913Z,11.05
2023-05-02T05:51:51.212Z,9.55
2023-05-02T05:53:53.961Z,9.35
2023-05-02T05:55:57.197Z,12.65
2023-05-02T05:57:59.149Z,10.43
2023-05-02T06:00:04.219Z,10.10
2023-05-02T06:02:17.399Z,9.90
2023-05-02T06:04:19.351Z,10.95
2023-05-02T06:06:24.108Z,9.65
2023-05-02T06:08:28.378Z,9.88
2023-05-02T06:10:31.387Z,10.35
2023-05-02T06:12:32.909Z,8.55
2023-05-02T06:14:34.594Z,9.80
2023-05-02T06:16:36.408Z,16.80
2023-05-02T06:18:37.926Z,14.38
2023-05-02T06:20:39.674Z,14.25
2023-05-02T06:22:41.161Z,11.82
2023-05-02T06:24:42.955Z,11.65
2023-05-02T06:26:47.685Z,14.95
2023-05-02T06:28:49.344Z,13.90
2023-05-02T06:31:01.800Z,11.18
2023-05-02T06:33:06.314Z,11.70
2023-05-02T06:35:08.407Z,12.25
2023-05-02T06:37:09.984Z,9.38
2023-05-02T06:39:11.687Z,8.35
2023-05-02T06:41:17.286Z,9.00
2023-05-02T06:43:19.751Z,9.25
2023-05-02T06:45:21.387Z,8.57
2023-05-02T06:47:24.406Z,9.32
2023-05-02T06:49:26.689Z,9.90
2023-05-02T06:51:28.171Z,8.75
2023-05-02T06:53:32.383Z,8.13
2023-05-02T06:55:34.529Z,8.50
2023-05-02T06:57:36.123Z,8.45
2023-05-02T06:59:37.977Z,8.88
2023-05-02T07:01:39.632Z,7.78
2023-05-02T07:03:41.375Z,8.23
2023-05-02T07:05:42.953Z,8.02
2023-05-02T07:07:45.288Z,8.38
2023-05-02T07:09:46.935Z,7.65
2023-05-02T07:11:48.423Z,9.18
2023-05-02T07:13:50.239Z,9.20
2023-05-02T07:15:55.332Z,7.70
2023-05-02T07:17:57.324Z,8.38
2023-05-02T07:19:59.004Z,7.95
2023-05-02T07:22:00.998Z,8.05
2023-05-02T07:24:02.499Z,7.38
2023-05-02T07:26:06.444Z,7.28
2023-05-02T07:28:08.374Z,9.25
2023-05-02T07:30:10.325Z,8.50
2023-05-02T07:32:12.120Z,7.70
2023-05-02T07:34:13.798Z,7.63
2023-05-02T07:36:15.361Z,7.13
2023-05-02T07:38:16.994Z,7.45
2023-05-02T07:40:18.580Z,7.65
2023-05-02T07:42:20.377Z,6.90
2023-05-02T07:44:21.910Z,7.78
2023-05-02T07:46:24.314Z,6.78
2023-05-02T07:48:30.277Z,6.85
2023-05-02T07:50:31.792Z,6.00
2023-05-02T07:52:33.412Z,7.22
2023-05-02T07:54:35.773Z,6.38
2023-05-02T07:56:37.223Z,5.90
2023-05-02T07:58:38.795Z,5.70
2023-05-02T08:00:40.629Z,5.65
2023-05-02T08:02:42.776Z,5.38
2023-05-02T08:04:44.538Z,6.35
2023-05-02T08:06:46.223Z,6.03
2023-05-02T08:08:47.784Z,6.57
2023-05-02T08:10:51.487Z,6.90
2023-05-02T08:12:52.975Z,6.63
2023-05-02T08:14:54.516Z,5.85
2023-05-02T08:16:55.950Z,7.25
2023-05-02T08:18:57.489Z,5.68
2023-05-02T08:21:02.248Z,5.00
2023-05-02T08:23:06.693Z,4.93
2023-05-02T08:25:08.336Z,5.50
2023-05-02T08:27:12.439Z,5.50
2023-05-02T08:29:13.887Z,5.57
2023-05-02T08:31:15.690Z,5.18
2023-05-02T08:33:18.926Z,6.05
2023-05-02T08:35:20.630Z,5.43
2023-05-02T08:37:22.130Z,5.63
2023-05-02T08:39:23.593Z,5.93
2023-05-02T08:41:25.455Z,5.30
2023-05-02T08:43:27.081Z,5.43
2023-05-02T08:45:37.655Z,5.88
2023-05-02T08:47:40.762Z,5.03
2023-05-02T08:49:42.638Z,5.72
2023-05-02T08:51:45.346Z,5.63
2023-05-02T08:53:48.746Z,5.50
2023-05-02T08:55:50.308Z,4.95
2023-05-02T08:57:52.566Z,5.50
2023-05-02T08:59:54.321Z,4.95
2023-05-02T09:02:00.992Z,4.88
2023-05-02T09:04:03.306Z,5.25
2023-05-02T09:06:12.837Z,5.25
2023-05-02T09:08:22.494Z,5.13
2023-05-02T09:10:28.335Z,4.70
2023-05-02T09:12:29.910Z,4.75
2023-05-02T09:14:32.687Z,5.20
2023-05-02T09:16:40.193Z,4.85
2023-05-02T09:18:44.157Z,5.18
2023-05-02T09:20:46.393Z,4.68
2023-05-02T09:22:52.139Z,5.15
2023-05-02T09:24:57.513Z,6.30
2023-05-02T09:27:03.013Z,4.30
2023-05-02T09:29:08.249Z,4.55
2023-05-02T09:31:13.568Z,5.38
2023-05-02T09:33:27.309Z,5.40
2023-05-02T09:35:29.247Z,6.90
2023-05-02T09:37:39.395Z,4.68
2023-05-02T09:39:40.981Z,4.50
2023-05-02T09:41:47.881Z,4.35
2023-05-02T09:43:59.381Z,4.18
2023-05-02T09:46:06.640Z,4.97
2023-05-02T09:48:08.577Z,4.30
2023-05-02T09:50:10.926Z,5.18
2023-05-02T09:52:13.892Z,4.03
2023-05-02T09:54:37.201Z,4.28
2023-05-02T09:56:57.566Z,4.18
2023-05-02T09:59:16.010Z,3.95
2023-05-02T10:01:18.829Z,4.45
2023-05-02T10:03:24.530Z,3.95
2023-05-02T10:05:27.402Z,4.43
2023-05-02T10:07:29.739Z,3.60
2023-05-02T10:09:34.940Z,4.00
2023-05-02T10:11:39.580Z,3.78
2023-05-02T10:13:43.319Z,4.22
2023-05-02T10:15:47.007Z,3.50
2023-05-02T10:17:51.104Z,3.80
2023-05-02T10:20:26.952Z,3.60
2023-05-02T10:22:31.099Z,3.40
2023-05-02T10:24:33.556Z,4.53
2023-05-02T10:26:36.320Z,4.25
2023-05-02T10:28:38.840Z,3.90
2023-05-02T10:30:41.285Z,3.78
2023-05-02T10:32:46.150Z,3.65
2023-05-02T10:34:51.792Z,4.70
2023-05-02T10:36:55.303Z,4.63
2023-05-02T10:38:56.932Z,4.50
2023-05-02T10:41:07.287Z,4.28
2023-05-02T10:43:15.170Z,3.83
2023-05-02T10:45:38.594Z,3.70
2023-05-02T10:47:49.275Z,3.88
2023-05-02T10:49:57.964Z,3.95
2023-05-02T10:52:25.833Z,4.13
2023-05-02T10:54:27.267Z,3.88
2023-05-02T10:56:31.860Z,3.97
2023-05-02T10:58:34.186Z,5.22
2023-05-02T11:00:35.889Z,4.50
2023-05-02T11:02:43.430Z,4.10
2023-05-02T11:05:02.850Z,3.95
2023-05-02T11:07:04.859Z,3.78
2023-05-02T11:09:21.483Z,5.05
2023-05-02T11:11:50.780Z,3.92
2023-05-02T11:13:52.666Z,6.20
2023-05-02T11:15:55.912Z,5.57
2023-05-02T11:18:12.828Z,4.80
2023-05-02T11:20:14.538Z,5.30
2023-05-02T11:22:21.992Z,5.20
2023-05-02T11:24:44.378Z,5.43
2023-05-02T11:26:46.556Z,5.05
2023-05-02T11:28:52.905Z,5.20
2023-05-02T11:30:55.430Z,5.18
2023-05-02T11:32:59.330Z,4.90
2023-05-02T11:35:01.581Z,5.35
2023-05-02T11:37:17.307Z,5.60
2023-05-02T11:39:23.556Z,5.03
2023-05-02T11:41:44.488Z,4.65
2023-05-02T11:43:46.310Z,4.63
2023-05-02T11:45:48.450Z,4.43
2023-05-02T11:47:51.511Z,4.15
2023-05-02T11:49:56.262Z,4.88
2023-05-02T11:51:59.149Z,5.03
2023-05-02T11:54:00.765Z,3.95
2023-05-02T11:56:04.396Z,3.63
2023-05-02T11:58:15.724Z,4.40
2023-05-02T12:00:18.420Z,4.10
2023-05-02T12:02:21.440Z,3.75
2023-05-02T12:04:24.067Z,4.47
2023-05-02T12:06:27.095Z,3.92
2023-05-02T12:08:31.113Z,3.25
2023-05-02T12:10:41.437Z,3.65
2023-05-02T12:12:44.528Z,3.63
2023-05-02T12:14:46.001Z,3.70
2023-05-02T12:16:47.614Z,3.42
2023-05-02T12:18:49.598Z,4.05
2023-05-02T12:20:52.477Z,3.80
2023-05-02T12:22:54.470Z,4.30
2023-05-02T12:24:56.401Z,4.45
2023-05-02T12:27:15.197Z,7.65
2023-05-02T12:29:17.058Z,8.07
2023-05-02T12:31:19.960Z,9.75
2023-05-02T12:33:21.784Z,7.25
2023-05-02T12:35:30.324Z,6.72
2023-05-02T12:37:31.979Z,6.03
2023-05-02T12:39:41.124Z,6.32
2023-05-02T12:41:45.911Z,5.93
2023-05-02T12:43:49.582Z,4.55
2023-05-02T12:45:53.753Z,7.13
2023-05-02T12:47:55.948Z,6.22
2023-05-02T12:49:59.593Z,4.28
2023-05-02T12:52:05.415Z,5.60
2023-05-02T12:54:07.375Z,6.47
2023-05-02T12:56:10.322Z,5.25
2023-05-02T12:58:15.134Z,6.45
2023-05-02T13:00:18.220Z,4.95
2023-05-02T13:02:21.111Z,3.55
2023-05-02T13:04:41.555Z,5.47
2023-05-02T13:06:45.162Z,3.95
2023-05-02T13:08:48.633Z,5.95
2023-05-02T13:10:50.191Z,6.28
2023-05-02T13:12:58.494Z,4.95
2023-05-02T13:15:00.026Z,4.80
2023-05-02T13:17:01.838Z,4.65
2023-05-02T13:19:06.233Z,3.92
2023-05-02T13:21:16.361Z,5.50
2023-05-02T13:23:17.939Z,4.32
2023-05-02T13:25:19.401Z,3.75
2023-05-02T13:27:23.461Z,4.05
2023-05-02T13:29:24.893Z,3.90
2023-05-02T13:31:26.376Z,3.10
2023-05-02T13:33:28.060Z,3.97
2023-05-02T13:35:33.504Z,3.05
2023-05-02T13:37:36.739Z,4.07
2023-05-02T13:39:38.516Z,3.35
2023-05-02T13:41:40.048Z,3.85
2023-05-02T13:43:41.634Z,4.43
2023-05-02T13:45:43.043Z,3.20
2023-05-02T13:47:44.564Z,2.75
2023-05-02T13:49:46.045Z,3.75
2023-05-02T13:51:51.060Z,3.45
2023-05-02T13:53:52.490Z,3.65
2023-05-02T13:55:53.995Z,3.55
2023-05-02T13:57:58.297Z,3.03
2023-05-02T14:00:00.315Z,4.43
2023-05-02T14:02:02.158Z,4.03
2023-05-02T14:04:08.508Z,3.50
2023-05-02T14:06:10.301Z,6.15
2023-05-02T14:08:13.185Z,3.45
2023-05-02T14:10:14.869Z,2.92
2023-05-02T14:12:16.487Z,3.75
2023-05-02T14:14:17.950Z,3.60
2023-05-02T14:16:19.707Z,3.50
2023-05-02T14:18:24.249Z,3.47
2023-05-02T14:20:25.997Z,3.92
2023-05-02T14:22:27.572Z,26.77
2023-05-02T14:24:29.071Z,104.28
2023-05-02T14:26:30.665Z,55.33
2023-05-02T14:28:32.409Z,61.25
2023-05-02T14:30:33.932Z,23.50
2023-05-02T14:32:35.903Z,11.60
2023-05-02T14:34:37.828Z,6.32
2023-05-02T14:36:39.276Z,4.82
2023-05-02T14:38:40.765Z,3.47
2023-05-02T14:40:45.205Z,4.65
2023-05-02T14:42:47.002Z,5.50
2023-05-02T14:44:48.471Z,5.78
2023-05-02T14:46:54.136Z,5.60
2023-05-02T14:48:55.901Z,5.47
2023-05-02T14:50:59.021Z,5.68
2023-05-02T14:53:00.561Z,5.07
2023-05-02T14:55:02.760Z,4.00
2023-05-02T14:57:04.957Z,3.38
2023-05-02T14:59:06.462Z,4.35
2023-05-02T15:01:16.246Z,3.63
2023-05-02T15:03:17.953Z,2.90
2023-05-02T15:05:21.915Z,2.45
2023-05-02T15:07:30.769Z,3.20
2023-05-02T15:09:32.445Z,2.40
2023-05-02T15:11:33.992Z,4.15
2023-05-02T15:13:35.833Z,4.97
2023-05-02T15:15:37.533Z,6.10
2023-05-02T15:17:39.735Z,7.50
2023-05-02T15:19:41.392Z,6.32
2023-05-02T15:21:43.227Z,3.60
2023-05-02T15:23:44.706Z,5.72
2023-05-02T15:25:46.435Z,3.40
2023-05-02T15:27:48.012Z,4.28
2023-05-02T15:29:49.721Z,4.32
2023-05-02T15:31:51.613Z,3.65
2023-05-02T15:33:53.839Z,2.65
2023-05-02T15:35:58.746Z,3.25
2023-05-02T15:38:00.333Z,2.45
2023-05-02T15:40:04.154Z,2.83
2023-05-02T15:42:32.019Z,2.78
2023-05-02T15:44:37.647Z,2.88
2023-05-02T15:46:40.874Z,3.03
2023-05-02T15:48:43.614Z,3.03
2023-05-02T15:50:48.608Z,3.08
2023-05-02T15:52:50.073Z,3.97
2023-05-02T15:54:54.251Z,3.47
2023-05-02T15:56:58.543Z,3.17
2023-05-02T15:59:00.582Z,3.47
2023-05-02T16:01:04.049Z,4.88
2023-05-02T16:03:06.434Z,3.65
2023-05-02T16:05:08.280Z,3.70
2023-05-02T16:07:10.305Z,3.70
2023-05-02T16:09:12.984Z,3.60
2023-05-02T16:11:15.063Z,3.55
2023-05-02T16:13:16.921Z,3.22
2023-05-02T16:15:19.895Z,3.65
2023-05-02T16:17:21.531Z,3.53
2023-05-02T16:19:23.147Z,3.40
2023-05-02T16:21:24.655Z,3.55
2023-05-02T16:23:26.397Z,3.33
2023-05-02T16:25:27.910Z,3.25
2023-05-02T16:27:31.538Z,5.00
2023-05-02T16:29:33.225Z,3.63
2023-05-02T16:31:37.704Z,3.45
2023-05-02T16:33:39.689Z,3.60
2023-05-02T16:35:44.226Z,3.47
2023-05-02T16:37:46.042Z,3.58
2023-05-02T16:39:47.635Z,3.40
2023-05-02T16:41:49.386Z,3.65
2023-05-02T16:43:50.996Z,3.83
2023-05-02T16:46:06.425Z,5.10
2023-05-02T16:48:14.845Z,5.65
2023-05-02T16:50:17.908Z,5.03
2023-05-02T16:52:19.422Z,3.38
2023-05-02T16:54:21.229Z,3.75
2023-05-02T16:56:22.899Z,5.43
2023-05-02T16:58:25.326Z,4.05
2023-05-02T17:00:26.766Z,4.18
2023-05-02T17:02:28.378Z,4.40
2023-05-02T17:04:32.754Z,4.38
2023-05-02T17:06:34.693Z,4.65
2023-05-02T17:08:36.660Z,5.15
2023-05-02T17:10:38.189Z,4.03
2023-05-02T17:12:43.919Z,5.00
2023-05-02T17:14:46.153Z,4.03
2023-05-02T17:16:47.778Z,7.65
2023-05-02T17:18:49.489Z,6.30
2023-05-02T17:20:51.041Z,6.10
2023-05-02T17:22:54.298Z,4.55
2023-05-02T17:24:56.239Z,4.35
2023-05-02T17:26:57.823Z,5.00
2023-05-02T17:28:59.268Z,6.28
2023-05-02T17:31:01.163Z,4.80
2023-05-02T17:33:03.074Z,3.60
2023-05-02T17:35:09.727Z,3.92
2023-05-02T17:37:11.334Z,3.25
2023-05-02T17:39:13.449Z,3.58
2023-05-02T17:41:15.156Z,3.35
2023-05-02T17:43:16.699Z,3.33
2023-05-02T17:45:18.223Z,3.17
2023-05-02T17:47:20.080Z,2.53
2023-05-02T17:49:21.846Z,3.10
2023-05-02T17:51:23.462Z,2.90
2023-05-02T17:53:26.467Z,3.17
2023-05-02T17:55:27.959Z,2.13
2023-05-02T17:57:29.449Z,3.30
2023-05-02T17:59:31.379Z,2.10
2023-05-02T18:01:33.158Z,3.80
2023-05-02T18:03:35.439Z,2.65
2023-05-02T18:05:38.827Z,3.13
2023-05-02T18:07:42.567Z,2.90
2023-05-02T18:09:44.021Z,2.42
2023-05-02T18:11:45.658Z,2.53
2023-05-02T18:13:49.472Z,3.03
2023-05-02T18:16:04.643Z,2.15
2023-05-02T18:18:07.181Z,2.10
2023-05-02T18:20:10.190Z,2.78
2023-05-02T18:22:18.552Z,3.65
2023-05-02T18:24:21.187Z,2.47
2023-05-02T18:26:22.966Z,2.00
2023-05-02T18:28:24.585Z,2.00
2023-05-02T18:30:25.989Z,3.35
2023-05-02T18:32:27.480Z,2.72
2023-05-02T18:34:33.201Z,2.60
2023-05-02T18:36:34.878Z,2.97
2023-05-02T18:38:37.560Z,3.13
2023-05-02T18:40:39.056Z,2.50
2023-05-02T18:42:40.676Z,2.30
2023-05-02T18:44:42.234Z,2.90
2023-05-02T18:46:46.954Z,2.33
2023-05-02T18:48:51.380Z,2.90
2023-05-02T18:50:56.945Z,4.63
2023-05-02T18:52:58.385Z,3.78
2023-05-02T18:55:03.112Z,4.85
2023-05-02T18:57:07.561Z,8.07
2023-05-02T18:59:09.211Z,10.18
2023-05-02T19:01:15.019Z,12.75
2023-05-02T19:03:17.662Z,8.98
2023-05-02T19:05:20.992Z,8.57
2023-05-02T19:07:27.970Z,7.05
2023-05-02T19:09:29.473Z,5.45
2023-05-02T19:11:31.912Z,4.78
2023-05-02T19:13:33.516Z,3.95
2023-05-02T19:15:35.170Z,2.97
2023-05-02T19:17:36.709Z,2.50
2023-05-02T19:19:40.984Z,2.55
2023-05-02T19:21:42.610Z,2.40
2023-05-02T19:23:51.118Z,2.80
2023-05-02T19:25:56.772Z,1.83
2023-05-02T19:27:58.309Z,2.35
2023-05-02T19:30:00.044Z,2.15
2023-05-02T19:32:01.804Z,3.38
2023-05-02T19:34:05.389Z,2.92
2023-05-02T19:36:10.461Z,1.70
2023-05-02T19:38:12.415Z,2.97
2023-05-02T19:40:14.258Z,2.20
2023-05-02T19:42:18.227Z,1.77
2023-05-02T19:44:21.543Z,1.52
2023-05-02T19:46:23.249Z,1.90
2023-05-02T19:48:24.826Z,1.45
2023-05-02T19:50:26.457Z,2.75
2023-05-02T19:52:27.961Z,3.08
2023-05-02T19:54:29.428Z,1.60
2023-05-02T19:56:31.073Z,1.60
2023-05-02T19:58:32.930Z,1.90
2023-05-02T20:00:37.003Z,1.67
2023-05-02T20:02:40.491Z,2.03
2023-05-02T20:04:41.990Z,2.67
2023-05-02T20:06:43.490Z,2.20
2023-05-02T20:08:45.343Z,1.67
2023-05-02T20:10:47.023Z,2.47
2023-05-02T20:12:48.685Z,5.38
2023-05-02T20:14:50.406Z,1.52
2023-05-02T20:17:00.776Z,1.95
2023-05-02T20:19:04.349Z,1.40
2023-05-02T20:21:05.961Z,1.50
2023-05-02T20:23:10.356Z,2.30
2023-05-02T20:25:12.630Z,1.92
2023-05-02T20:27:14.448Z,1.80
2023-05-02T20:29:16.115Z,1.85
2023-05-02T20:31:22.827Z,2.88
2023-05-02T20:33:27.609Z,1.52
2023-05-02T20:35:35.145Z,2.85
2023-05-02T20:37:36.896Z,2.72
2023-05-02T20:39:38.437Z,2.40
2023-05-02T20:41:40.004Z,3.10
2023-05-02T20:43:44.843Z,3.85
2023-05-02T20:45:46.749Z,2.75
2023-05-02T20:47:51.105Z,3.03
2023-05-02T20:49:53.418Z,3.30
2023-05-02T20:51:55.024Z,3.05
2023-05-02T20:53:56.548Z,3.47
2023-05-02T20:55:58.041Z,2.70
2023-05-02T20:57:59.643Z,2.80
2023-05-02T21:00:01.714Z,3.35
2023-05-02T21:02:03.622Z,3.80
2023-05-02T21:04:05.819Z,3.08
2023-05-02T21:06:07.822Z,3.58
2023-05-02T21:08:09.461Z,4.50
2023-05-02T21:10:11.120Z,6.05
2023-05-02T21:12:12.812Z,3.15
2023-05-02T21:14:14.537Z,4.65
2023-05-02T21:16:20.854Z,3.67
2023-05-02T21:18:25.610Z,4.20
2023-05-02T21:20:27.676Z,4.25
2023-05-02T21:22:32.794Z,5.68
2023-05-02T21:24:34.311Z,4.57
2023-05-02T21:26:38.043Z,4.65
2023-05-02T21:28:40.999Z,5.28
2023-05-02T21:30:42.777Z,5.82
2023-05-02T21:32:45.003Z,4.18
2023-05-02T21:34:46.430Z,5.97
2023-05-02T21:36:47.976Z,5.15
2023-05-02T21:38:50.306Z,3.97
2023-05-02T21:40:52.037Z,4.90
2023-05-02T21:42:53.685Z,5.60
2023-05-02T21:44:55.341Z,6.43
2023-05-02T21:46:56.902Z,5.43
2023-05-02T21:49:00.672Z,7.30
2023-05-02T21:51:08.389Z,5.50
2023-05-02T21:53:10.371Z,4.65
2023-05-02T21:55:11.937Z,4.97
2023-05-02T21:57:13.465Z,5.32
2023-05-02T21:59:14.911Z,6.50
2023-05-02T22:01:17.031Z,5.78
2023-05-02T22:03:18.694Z,6.53
2023-05-02T22:05:20.208Z,6.30
2023-05-02T22:07:21.789Z,6.55
2023-05-02T22:09:26.174Z,6.35
2023-05-02T22:11:28.539Z,5.20
2023-05-02T22:13:30.238Z,4.38
2023-05-02T22:15:35.510Z,5.55
2023-05-02T22:17:36.994Z,5.45
2023-05-02T22:19:39.239Z,6.40
2023-05-02T22:21:40.754Z,4.88
2023-05-02T22:23:42.177Z,6.30
2023-05-02T22:25:46.333Z,6.38
2023-05-02T22:27:50.802Z,5.55
2023-05-02T22:29:58.347Z,7.20
2023-05-02T22:31:59.898Z,5.25
2023-05-02T22:34:04.340Z,4.95
2023-05-02T22:36:06.091Z,4.97
2023-05-02T22:38:11.009Z,4.70
2023-05-02T22:40:13.232Z,5.55
2023-05-02T22:42:15.123Z,6.53
2023-05-02T22:44:16.870Z,4.28
2023-05-02T22:46:18.802Z,3.95
2023-05-02T22:48:23.220Z,5.22
2023-05-02T22:50:26.123Z,5.57
2023-05-02T22:52:28.299Z,5.20
2023-05-02T22:54:29.798Z,6.47
2023-05-02T22:56:31.385Z,4.95
2023-05-02T22:58:32.887Z,6.68
2023-05-02T23:00:34.515Z,5.53
2023-05-02T23:02:36.905Z,5.32
2023-05-02T23:04:38.462Z,4.90
2023-05-02T23:06:40.140Z,5.70
2023-05-02T23:08:41.632Z,5.57
2023-05-02T23:10:43.066Z,7.63
2023-05-02T23:12:44.652Z,4.78
2023-05-02T23:14:46.339Z,5.47
2023-05-02T23:16:49.800Z,5.07
2023-05-02T23:18:52.763Z,4.75
2023-05-02T23:20:56.631Z,7.38
2023-05-02T23:22:58.224Z,6.70
2023-05-02T23:25:00.218Z,4.28
2023-05-02T23:27:01.644Z,6.07
2023-05-02T23:29:03.129Z,6.85
2023-05-02T23:31:05.127Z,4.53
2023-05-02T23:33:06.765Z,5.65
2023-05-02T23:35:08.974Z,6.45
2023-05-02T23:37:11.536Z,6.30
2023-05-02T23:39:13.514Z,4.45
2023-05-02T23:41:15.047Z,4.97
2023-05-02T23:43:16.503Z,3.45
2023-05-02T23:45:21.297Z,4.57
2023-05-02T23:47:27.081Z,4.40
2023-05-02T23:49:28.668Z,4.35
2023-05-02T23:51:31.699Z,5.75
2023-05-02T23:53:33.158Z,5.20
2023-05-02T23:55:34.675Z,7.05
2023-05-02T23:57:37.092Z,4.68
2023-05-02T23:59:38.670Z,5.68
